createdAt,value
2023-03-26T00:01:06.039Z,92.76
2023-03-26T00:03:41.057Z,92.71
2023-03-26T00:06:18.506Z,93.19
2023-03-26T00:08:50.883Z,93.00
2023-03-26T00:11:25.231Z,92.92
2023-03-26T00:13:58.063Z,93.20
2023-03-26T00:16:32.837Z,92.90
2023-03-26T00:19:06.136Z,93.05
2023-03-26T00:21:41.637Z,92.74
2023-03-26T00:24:17.632Z,93.21
2023-03-26T00:26:53.619Z,92.78
2023-03-26T00:29:28.261Z,92.64
2023-03-26T00:32:00.300Z,92.59
2023-03-26T00:34:34.615Z,92.89
2023-03-26T00:37:09.301Z,93.16
2023-03-26T00:39:42.938Z,93.07
2023-03-26T00:42:15.892Z,92.72
2023-03-26T00:44:48.125Z,92.84
2023-03-26T00:47:20.142Z,93.05
2023-03-26T00:49:52.168Z,92.95
2023-03-26T00:52:28.894Z,93.10
2023-03-26T00:55:01.058Z,92.73
2023-03-26T00:57:35.911Z,93.08
2023-03-26T01:00:17.106Z,93.07
2023-03-26T01:02:49.329Z,92.68
2023-03-26T01:05:53.307Z,93.16
2023-03-26T01:08:36.400Z,93.11
2023-03-26T01:11:14.779Z,93.63
2023-03-26T01:13:52.508Z,93.55
2023-03-26T01:16:30.623Z,93.61
2023-03-26T01:19:02.979Z,93.93
2023-03-26T01:21:35.483Z,93.64
2023-03-26T01:24:13.913Z,93.47
2023-03-26T01:27:17.964Z,93.16
2023-03-26T01:29:56.896Z,93.12
2023-03-26T01:32:55.862Z,92.90
2023-03-26T01:35:41.728Z,93.29
2023-03-26T01:38:28.013Z,93.40
2023-03-26T01:41:09.351Z,94.16
2023-03-26T01:43:48.785Z,93.90
2023-03-26T01:46:22.699Z,93.94
2023-03-26T01:48:56.104Z,93.50
2023-03-26T01:51:33.356Z,93.74
2023-03-26T01:54:08.161Z,93.30
2023-03-26T01:56:57.584Z,93.11
2023-03-26T02:00:11.946Z,92.81
2023-03-26T02:02:56.732Z,92.60
2023-03-26T02:05:35.863Z,92.97
2023-03-26T02:08:21.149Z,93.00
2023-03-26T02:10:59.967Z,93.04
2023-03-26T02:13:35.109Z,92.73
2023-03-26T02:16:11.910Z,92.96
2023-03-26T02:18:44.776Z,93.29
2023-03-26T02:21:20.632Z,93.09
2023-03-26T02:23:58.198Z,93.45
2023-03-26T02:26:30.410Z,94.27
2023-03-26T02:29:05.898Z,93.19
2023-03-26T02:31:38.031Z,93.99
2023-03-26T02:34:10.483Z,93.32
2023-03-26T02:36:43.169Z,93.43
2023-03-26T02:39:15.868Z,93.18
2023-03-26T02:41:47.887Z,93.19
2023-03-26T02:44:22.666Z,93.54
2023-03-26T02:46:54.755Z,93.52
2023-03-26T02:49:27.404Z,93.34
2023-03-26T02:51:59.593Z,94.61
2023-03-26T02:54:31.965Z,93.76
2023-03-26T02:57:04.033Z,93.40
2023-03-26T02:59:38.633Z,93.17
2023-03-26T03:02:10.986Z,92.69
2023-03-26T03:04:44.165Z,93.41
2023-03-26T03:07:17.104Z,94.21
2023-03-26T03:09:50.825Z,94.11
2023-03-26T03:12:22.844Z,93.97
2023-03-26T03:14:57.576Z,94.12
2023-03-26T03:17:29.678Z,94.15
2023-03-26T03:20:01.793Z,94.05
2023-03-26T03:22:33.806Z,94.15
2023-03-26T03:25:09.176Z,94.11
2023-03-26T03:27:41.410Z,94.08
2023-03-26T03:30:18.074Z,94.29
2023-03-26T03:32:50.503Z,94.06
2023-03-26T03:35:22.997Z,94.23
2023-03-26T03:37:55.133Z,94.18
2023-03-26T03:40:27.349Z,93.77
2023-03-26T03:42:59.534Z,93.95
2023-03-26T03:45:34.390Z,94.04
2023-03-26T03:48:07.383Z,94.04
2023-03-26T03:50:39.535Z,93.56
2023-03-26T03:53:16.349Z,93.27
2023-03-26T03:55:53.409Z,93.45
2023-03-26T03:58:28.163Z,92.96
2023-03-26T04:01:04.508Z,93.17
2023-03-26T04:03:42.380Z,93.13
2023-03-26T04:06:19.030Z,92.78
2023-03-26T04:08:51.426Z,92.74
2023-03-26T04:11:23.656Z,92.94
2023-03-26T04:13:55.902Z,93.11
2023-03-26T04:16:30.546Z,92.96
2023-03-26T04:19:04.120Z,92.51
2023-03-26T04:21:38.169Z,92.99
2023-03-26T04:24:11.155Z,92.83
2023-03-26T04:26:43.367Z,92.85
2023-03-26T04:29:22.118Z,92.21
2023-03-26T04:32:06.732Z,92.02
2023-03-26T04:34:39.207Z,91.82
2023-03-26T04:37:12.505Z,91.95
2023-03-26T04:39:45.113Z,92.07
2023-03-26T04:42:20.108Z,92.03
2023-03-26T04:44:52.425Z,91.92
2023-03-26T04:47:27.131Z,92.15
2023-03-26T04:49:59.312Z,91.72
2023-03-26T04:52:32.359Z,91.96
2023-03-26T04:55:05.434Z,91.91
2023-03-26T04:57:46.363Z,91.80
2023-03-26T05:00:20.609Z,91.45
2023-03-26T05:02:58.004Z,91.61
2023-03-26T05:05:32.887Z,91.66
2023-03-26T05:08:04.957Z,91.59
2023-03-26T05:10:37.305Z,91.59
2023-03-26T05:13:09.381Z,91.95
2023-03-26T05:15:41.591Z,91.67
2023-03-26T05:18:16.271Z,92.05
2023-03-26T05:20:49.242Z,91.97
2023-03-26T05:23:21.281Z,91.86
2023-03-26T05:25:56.134Z,91.74
2023-03-26T05:28:28.465Z,91.62
2023-03-26T05:31:01.301Z,91.61
2023-03-26T05:33:36.388Z,92.29
2023-03-26T05:36:13.416Z,91.37
2023-03-26T05:38:47.923Z,91.16
2023-03-26T05:41:21.796Z,91.05
2023-03-26T05:43:53.907Z,91.72
2023-03-26T05:46:26.163Z,91.72
2023-03-26T05:49:01.036Z,91.30
2023-03-26T05:51:33.108Z,91.97
2023-03-26T05:54:05.654Z,91.44
2023-03-26T05:56:37.893Z,91.61
2023-03-26T05:59:10.191Z,91.18
2023-03-26T06:01:44.853Z,90.67
2023-03-26T06:04:20.235Z,91.41
2023-03-26T06:06:52.846Z,91.58
2023-03-26T06:09:24.903Z,91.31
2023-03-26T06:11:56.994Z,91.79
2023-03-26T06:14:29.269Z,91.92
2023-03-26T06:17:01.303Z,91.57
2023-03-26T06:19:35.938Z,91.54
2023-03-26T06:22:08.362Z,91.20
2023-03-26T06:24:40.555Z,91.40
2023-03-26T06:27:12.549Z,91.39
2023-03-26T06:29:44.556Z,91.39
2023-03-26T06:32:20.206Z,91.14
2023-03-26T06:34:55.393Z,91.47
2023-03-26T06:37:27.477Z,91.12
2023-03-26T06:39:59.540Z,90.76
2023-03-26T06:42:32.126Z,90.16
2023-03-26T06:45:23.759Z,90.11
2023-03-26T06:47:56.005Z,90.12
2023-03-26T06:50:32.331Z,90.26
2023-03-26T06:53:04.437Z,90.37
2023-03-26T06:55:36.725Z,90.31
2023-03-26T06:58:08.808Z,90.48
2023-03-26T07:00:42.810Z,90.61
2023-03-26T07:03:17.349Z,90.59
2023-03-26T07:05:52.539Z,90.58
2023-03-26T07:08:26.386Z,90.70
2023-03-26T07:10:58.600Z,90.24
2023-03-26T07:13:30.623Z,90.34
2023-03-26T07:16:03.184Z,90.29
2023-03-26T07:18:35.475Z,90.36
2023-03-26T07:21:11.416Z,89.67
2023-03-26T07:23:44.115Z,89.83
2023-03-26T07:26:34.984Z,89.91
2023-03-26T07:29:17.231Z,90.32
2023-03-26T07:31:56.976Z,90.26
2023-03-26T07:34:46.344Z,90.22
2023-03-26T07:37:36.405Z,91.00
2023-03-26T07:40:21.321Z,89.47
2023-03-26T07:43:09.891Z,88.96
2023-03-26T07:45:45.542Z,88.76
2023-03-26T07:48:25.574Z,89.04
2023-03-26T07:51:00.319Z,89.18
2023-03-26T07:53:35.478Z,88.60
2023-03-26T07:56:16.454Z,88.64
2023-03-26T07:59:08.155Z,89.00
2023-03-26T08:02:17.751Z,89.66
2023-03-26T08:05:10.668Z,89.59
2023-03-26T08:07:59.804Z,89.04
2023-03-26T08:10:42.335Z,89.16
2023-03-26T08:13:30.667Z,89.46
2023-03-26T08:16:11.135Z,88.87
2023-03-26T08:18:56.152Z,89.18
2023-03-26T08:21:34.049Z,88.64
2023-03-26T08:24:14.803Z,87.93
2023-03-26T08:27:01.713Z,87.92
2023-03-26T08:29:45.895Z,87.94
2023-03-26T08:32:22.680Z,87.73
2023-03-26T08:34:57.595Z,87.86
2023-03-26T08:37:30.048Z,87.32
2023-03-26T08:40:02.142Z,87.54
2023-03-26T08:43:07.092Z,87.52
2023-03-26T08:46:26.188Z,87.37
2023-03-26T08:49:07.138Z,88.06
2023-03-26T08:52:15.076Z,87.12
2023-03-26T08:55:11.864Z,87.15
2023-03-26T08:58:14.062Z,86.94
2023-03-26T09:01:24.525Z,86.61
2023-03-26T09:04:38.569Z,86.26
2023-03-26T09:07:36.787Z,86.83
2023-03-26T09:10:35.914Z,86.41
2023-03-26T09:29:07.879Z,87.97
2023-03-26T09:32:12.852Z,87.76
2023-03-26T09:35:15.012Z,87.70
2023-03-26T09:38:02.843Z,88.35
2023-03-26T09:40:47.688Z,88.51
2023-03-26T09:43:46.320Z,88.08
2023-03-26T09:46:32.867Z,87.50
2023-03-26T09:53:01.243Z,86.90
2023-03-26T09:55:59.599Z,86.89
2023-03-26T09:58:58.113Z,86.71
2023-03-26T10:01:45.953Z,86.40
2023-03-26T10:04:47.882Z,86.40
2023-03-26T10:10:59.236Z,85.74
2023-03-26T10:13:43.720Z,86.84
2023-03-26T10:27:09.134Z,85.88
2023-03-26T10:30:02.167Z,85.89
2023-03-26T10:32:45.513Z,86.13
2023-03-26T10:35:33.947Z,86.47
2023-03-26T10:38:19.173Z,85.80
2023-03-26T10:41:07.798Z,85.17
2023-03-26T10:44:17.023Z,85.51
2023-03-26T10:47:22.362Z,86.94
2023-03-26T10:50:22.743Z,87.09
2023-03-26T10:53:03.391Z,86.43
2023-03-26T10:55:44.408Z,86.25
2023-03-26T10:58:26.375Z,85.66
2023-03-26T11:01:06.758Z,85.48
2023-03-26T11:03:53.002Z,85.85
2023-03-26T11:06:38.912Z,86.76
2023-03-26T11:09:25.355Z,86.79
2023-03-26T11:12:25.476Z,87.26
2023-03-26T11:15:11.902Z,86.49
2023-03-26T11:18:02.761Z,85.32
2023-03-26T11:20:43.485Z,84.69
2023-03-26T11:23:38.422Z,84.66
2023-03-26T11:26:17.198Z,84.62
2023-03-26T11:29:32.788Z,83.30
2023-03-26T11:32:13.453Z,82.94
2023-03-26T11:35:00.798Z,83.46
2023-03-26T11:37:38.374Z,84.39
2023-03-26T11:40:21.565Z,85.05
2023-03-26T11:43:00.866Z,83.65
2023-03-26T11:45:38.823Z,83.78
2023-03-26T11:48:17.426Z,82.56
2023-03-26T11:50:57.417Z,81.19
2023-03-26T11:53:38.658Z,81.73
2023-03-26T11:56:19.502Z,81.75
2023-03-26T11:59:01.356Z,81.69
2023-03-26T12:01:50.576Z,81.69
2023-03-26T12:07:57.497Z,83.82
2023-03-26T12:10:38.460Z,84.21
2023-03-26T12:13:33.118Z,84.65
2023-03-26T12:16:11.892Z,85.67
2023-03-26T12:18:44.888Z,83.64
2023-03-26T12:24:49.140Z,80.95
2023-03-26T12:27:30.977Z,81.56
2023-03-26T12:30:13.186Z,81.40
2023-03-26T12:32:47.217Z,82.34
2023-03-26T12:38:27.596Z,77.11
2023-03-26T12:44:42.836Z,77.78
2023-03-26T12:44:56.579Z,76.03
2023-03-26T12:47:59.789Z,74.48
2023-03-26T12:50:18.074Z,75.16
2023-03-26T12:53:37.744Z,75.54
2023-03-26T12:56:24.526Z,74.73
2023-03-26T12:59:18.640Z,75.15
2023-03-26T13:02:02.509Z,73.24
2023-03-26T13:08:24.650Z,73.27
2023-03-26T13:11:08.010Z,72.00
2023-03-26T13:14:18.871Z,71.31
2023-03-26T13:16:59.428Z,70.29
2023-03-26T13:19:41.209Z,69.04
2023-03-26T13:25:40.846Z,68.75
2023-03-26T13:28:27.466Z,67.33
2023-03-26T13:31:15.113Z,67.59
2023-03-26T13:34:00.817Z,68.30
2023-03-26T13:36:47.464Z,66.92
2023-03-26T13:39:33.533Z,66.55
2023-03-26T13:42:31.681Z,66.46
2023-03-26T13:45:12.302Z,66.92
2023-03-26T13:47:52.564Z,67.17
2023-03-26T13:50:30.548Z,65.60
2023-03-26T13:53:07.196Z,65.43
2023-03-26T13:55:44.889Z,64.22
2023-03-26T13:58:34.265Z,64.75
2023-03-26T14:01:12.789Z,65.36
2023-03-26T14:03:58.422Z,64.51
2023-03-26T14:06:46.797Z,65.25
2023-03-26T14:09:26.053Z,64.08
2023-03-26T14:12:24.680Z,65.53
2023-03-26T14:15:04.448Z,65.70
2023-03-26T14:17:45.048Z,63.86
2023-03-26T14:20:56.496Z,64.40
2023-03-26T14:24:06.826Z,63.87
2023-03-26T14:27:05.644Z,63.42
2023-03-26T14:30:03.964Z,62.48
2023-03-26T14:32:58.725Z,62.81
2023-03-26T14:35:45.109Z,63.25
2023-03-26T14:38:53.952Z,64.32
2023-03-26T14:41:31.842Z,64.32
2023-03-26T14:44:47.751Z,64.63
2023-03-26T14:47:22.403Z,64.44
2023-03-26T14:50:46.983Z,63.63
2023-03-26T14:53:33.610Z,63.27
2023-03-26T14:56:51.053Z,63.53
2023-03-26T15:00:07.235Z,62.75
2023-03-26T15:03:14.651Z,62.82
2023-03-26T15:06:19.841Z,62.83
2023-03-26T15:09:27.855Z,61.48
2023-03-26T15:12:13.666Z,61.47
2023-03-26T15:15:34.586Z,61.55
2023-03-26T15:18:37.305Z,62.11
2023-03-26T15:21:48.926Z,61.95
2023-03-26T15:25:07.016Z,61.70
2023-03-26T15:28:01.541Z,62.81
2023-03-26T15:31:09.948Z,60.88
2023-03-26T15:34:24.797Z,60.27
2023-03-26T15:37:31.030Z,59.07
2023-03-26T15:40:30.041Z,58.80
2023-03-26T15:43:14.443Z,58.55
2023-03-26T15:45:50.593Z,58.70
2023-03-26T15:48:55.075Z,60.07
2023-03-26T15:51:46.512Z,60.66
2023-03-26T15:54:30.419Z,58.33
2023-03-26T15:57:16.915Z,58.08
2023-03-26T16:00:12.610Z,57.77
2023-03-26T16:02:54.083Z,58.19
2023-03-26T16:05:51.771Z,58.76
2023-03-26T16:08:39.288Z,58.81
2023-03-26T16:11:13.591Z,58.42
2023-03-26T16:13:47.255Z,59.12
2023-03-26T16:16:28.383Z,58.12
2023-03-26T16:19:22.955Z,58.97
2023-03-26T16:22:06.235Z,59.51
2023-03-26T16:24:42.605Z,58.78
2023-03-26T16:27:37.813Z,58.24
2023-03-26T16:30:20.891Z,59.18
2023-03-26T16:32:59.356Z,58.70
2023-03-26T16:36:03.816Z,57.78
2023-03-26T16:38:53.104Z,58.34
2023-03-26T16:41:31.632Z,58.46
2023-03-26T16:44:14.010Z,57.56
2023-03-26T16:46:58.483Z,56.68
2023-03-26T16:50:07.404Z,56.20
2023-03-26T16:52:53.411Z,56.37
2023-03-26T16:55:42.870Z,55.23
2023-03-26T16:58:31.267Z,55.16
2023-03-26T17:01:16.135Z,55.16
2023-03-26T17:03:58.305Z,55.99
2023-03-26T17:06:56.865Z,56.66
2023-03-26T17:09:44.281Z,55.98
2023-03-26T17:12:28.655Z,56.07
2023-03-26T17:15:15.435Z,55.48
2023-03-26T17:18:18.610Z,54.89
2023-03-26T17:21:04.565Z,55.18
2023-03-26T17:23:59.164Z,54.53
2023-03-26T17:26:46.122Z,53.19
2023-03-26T17:29:30.054Z,54.09
2023-03-26T17:32:12.457Z,55.03
2023-03-26T17:35:04.527Z,55.40
2023-03-26T17:37:48.133Z,56.13
2023-03-26T17:40:51.716Z,56.39
2023-03-26T17:43:42.288Z,58.11
2023-03-26T17:46:33.350Z,57.31
2023-03-26T17:49:16.867Z,56.43
2023-03-26T17:51:57.941Z,56.59
2023-03-26T17:54:39.473Z,56.05
2023-03-26T17:57:20.619Z,56.11
2023-03-26T17:59:57.077Z,56.53
2023-03-26T18:02:42.222Z,56.27
2023-03-26T18:05:22.847Z,55.95
2023-03-26T18:08:24.226Z,56.92
2023-03-26T18:11:24.003Z,56.85
2023-03-26T18:14:20.084Z,58.68
2023-03-26T18:16:56.210Z,58.94
2023-03-26T18:19:28.678Z,58.01
2023-03-26T18:22:02.635Z,57.14
2023-03-26T18:24:37.271Z,57.56
2023-03-26T18:27:13.187Z,56.52
2023-03-26T18:30:03.118Z,57.61
2023-03-26T18:32:41.090Z,57.93
2023-03-26T18:35:21.656Z,57.20
2023-03-26T18:37:59.056Z,57.76
2023-03-26T18:40:36.555Z,58.15
2023-03-26T18:43:09.053Z,58.52
2023-03-26T18:45:44.817Z,58.83
2023-03-26T18:48:22.768Z,59.19
2023-03-26T18:50:59.917Z,59.05
2023-03-26T18:53:42.985Z,59.67
2023-03-26T18:56:31.577Z,60.61
2023-03-26T18:59:05.381Z,60.39
2023-03-26T19:01:42.182Z,60.81
2023-03-26T19:04:17.012Z,59.61
2023-03-26T19:06:53.941Z,59.86
2023-03-26T19:09:32.132Z,59.66
2023-03-26T19:12:11.218Z,60.57
2023-03-26T19:14:59.433Z,61.02
2023-03-26T19:17:39.048Z,61.44
2023-03-26T19:20:20.002Z,62.11
2023-03-26T19:22:54.071Z,62.43
2023-03-26T19:25:30.279Z,63.26
2023-03-26T19:28:02.681Z,63.39
2023-03-26T19:30:38.061Z,63.05
2023-03-26T19:33:19.286Z,63.61
2023-03-26T19:35:57.782Z,62.79
2023-03-26T19:38:33.202Z,62.70
2023-03-26T19:41:05.300Z,62.12
2023-03-26T19:43:37.396Z,62.27
2023-03-26T19:46:09.605Z,62.55
2023-03-26T19:48:45.629Z,63.14
2023-03-26T19:51:24.595Z,63.55
2023-03-26T19:54:03.249Z,63.71
2023-03-26T19:56:35.513Z,64.38
2023-03-26T19:59:08.012Z,64.03
2023-03-26T20:01:40.224Z,64.08
2023-03-26T20:04:16.755Z,64.65
2023-03-26T20:06:49.316Z,64.56
2023-03-26T20:09:21.549Z,64.64
2023-03-26T20:11:54.379Z,64.78
2023-03-26T20:14:27.229Z,65.11
2023-03-26T20:16:59.317Z,64.51
2023-03-26T20:19:37.014Z,63.95
2023-03-26T20:22:10.276Z,63.85
2023-03-26T20:24:42.570Z,63.77
2023-03-26T20:27:16.297Z,64.14
2023-03-26T20:29:48.501Z,64.49
2023-03-26T20:32:27.111Z,63.56
2023-03-26T20:35:02.337Z,63.24
2023-03-26T20:37:34.361Z,63.36
2023-03-26T20:40:07.253Z,63.34
2023-03-26T20:42:39.285Z,63.95
2023-03-26T20:45:20.436Z,63.99
2023-03-26T20:47:54.358Z,63.77
2023-03-26T20:50:30.040Z,63.54
2023-03-26T20:53:03.753Z,63.44
2023-03-26T20:55:35.903Z,63.61
2023-03-26T20:58:08.377Z,63.75
2023-03-26T21:00:41.616Z,63.21
2023-03-26T21:03:17.167Z,63.64
2023-03-26T21:05:52.734Z,63.82
2023-03-26T21:08:30.349Z,64.01
2023-03-26T21:11:03.516Z,63.85
2023-03-26T21:13:43.116Z,64.97
2023-03-26T21:16:17.353Z,64.98
2023-03-26T21:18:50.190Z,65.03
2023-03-26T21:21:42.688Z,64.71
2023-03-26T21:24:25.587Z,64.66
2023-03-26T21:27:09.814Z,65.08
2023-03-26T21:29:42.822Z,65.37
2023-03-26T21:32:16.339Z,65.58
2023-03-26T21:34:58.769Z,66.21
2023-03-26T21:37:34.809Z,65.89
2023-03-26T21:40:14.430Z,66.38
2023-03-26T21:42:47.408Z,66.79
2023-03-26T21:45:20.724Z,66.66
2023-03-26T21:47:54.441Z,67.43
2023-03-26T21:50:27.706Z,67.68
2023-03-26T21:53:02.914Z,67.81
2023-03-26T21:55:46.803Z,68.78
2023-03-26T21:58:42.953Z,68.58
2023-03-26T22:01:30.481Z,68.99
2023-03-26T22:04:13.463Z,68.79
2023-03-26T22:06:52.690Z,69.10
2023-03-26T22:12:08.424Z,68.49
2023-03-26T22:14:40.795Z,68.78
2023-03-26T22:17:13.188Z,68.27
2023-03-26T22:19:45.222Z,67.37
2023-03-26T22:22:19.860Z,67.45
2023-03-26T22:24:54.576Z,67.50
2023-03-26T22:27:26.624Z,67.65
2023-03-26T22:29:58.984Z,68.42
2023-03-26T22:32:32.781Z,68.62
2023-03-26T22:35:05.356Z,68.95
2023-03-26T22:37:37.933Z,68.50
2023-03-26T22:40:13.910Z,69.30
2023-03-26T22:42:46.278Z,69.17
2023-03-26T22:45:20.275Z,69.61
2023-03-26T22:47:52.794Z,69.37
2023-03-26T22:50:36.200Z,69.29
2023-03-26T22:53:08.649Z,69.46
2023-03-26T22:55:43.847Z,69.67
2023-03-26T22:58:17.028Z,70.08
2023-03-26T23:00:51.856Z,70.64
2023-03-26T23:03:35.040Z,71.12
2023-03-26T23:06:13.610Z,71.47
2023-03-26T23:08:46.458Z,71.45
2023-03-26T23:11:23.430Z,72.34
2023-03-26T23:13:55.693Z,72.53
2023-03-26T23:16:27.770Z,72.73
2023-03-26T23:18:59.902Z,73.42
2023-03-26T23:21:31.940Z,72.92
2023-03-26T23:24:04.722Z,72.30
2023-03-26T23:26:49.622Z,72.19
2023-03-26T23:29:25.653Z,72.22
2023-03-26T23:31:57.735Z,72.27
2023-03-26T23:34:32.171Z,72.19
2023-03-26T23:37:04.205Z,72.41
2023-03-26T23:39:36.311Z,72.68
2023-03-26T23:42:12.574Z,73.05
2023-03-26T23:44:46.531Z,73.01
2023-03-26T23:47:18.593Z,72.74
2023-03-26T23:49:50.689Z,72.55
2023-03-26T23:52:22.687Z,72.62
2023-03-26T23:54:54.876Z,73.12
2023-03-26T23:57:30.635Z,73.46
